Time;durP1;ratioP1;P1;durP2;ratioP2;P2;SDS_P1;SDS_P2;PMS_P1;PMS_P2;Temp;Humidity;BMP_temperature;BMP_pressure;BME280_temperature;BME280_humidity;BME280_pressure;Samples;Min_cycle;Max_cycle;Signal;HPM_P1;HPM_P2
2022/05/22 00:01:45;;;;;;;6.65;1.20;;;;;;;13.59;57.83;101389.81;5085450;28;20432;-45
2022/05/22 00:04:11;;;;;;;5.72;1.40;;;;;;;13.61;57.67;101379.16;5090394;28;20206;-46
2022/05/22 00:06:36;;;;;;;9.98;1.63;;;;;;;13.65;57.56;101394.75;5083302;28;20038;-45
2022/05/22 00:09:02;;;;;;;6.40;1.30;;;;;;;13.61;57.72;101387.94;5072863;28;20056;-48
2022/05/22 00:11:28;;;;;;;6.47;1.25;;;;;;;13.52;57.95;101383.22;5079836;28;21842;-47
2022/05/22 00:13:54;;;;;;;43.60;5.00;;;;;;;13.51;57.96;101389.44;5072396;28;20533;-44
2022/05/22 00:16:37;;;;;;;6.28;1.40;;;;;;;13.52;58.08;101385.84;5074407;28;20044;-48
2022/05/22 00:19:08;;;;;;;6.47;1.20;;;;;;;13.52;57.87;101383.22;5087445;28;20044;-48
2022/05/22 00:21:35;;;;;;;9.73;1.10;;;;;;;13.48;58.00;101381.69;5090139;28;20072;-47
2022/05/22 00:24:00;;;;;;;7.10;1.60;;;;;;;13.50;57.92;101379.81;5089116;28;20106;-44
2022/05/22 00:26:26;;;;;;;6.18;1.55;;;;;;;13.49;58.12;101378.09;5087252;28;20119;-48
2022/05/22 00:28:51;;;;;;;4.28;1.30;;;;;;;13.46;58.13;101375.63;5085707;28;20056;-44
2022/05/22 00:31:17;;;;;;;5.75;1.10;;;;;;;13.41;58.28;101376.75;5073607;28;20024;-48
2022/05/22 00:33:43;;;;;;;3.95;1.30;;;;;;;13.40;58.22;101380.34;5082155;28;20415;-50
2022/05/22 00:36:09;;;;;;;4.90;1.60;;;;;;;13.40;58.25;101380.34;5070208;28;20028;-50
2022/05/22 00:38:35;;;;;;;5.55;1.30;;;;;;;13.39;58.30;101375.97;5086066;28;20376;-44
2022/05/22 00:41:00;;;;;;;6.18;1.30;;;;;;;13.40;58.45;101374.22;5081863;28;20032;-44
2022/05/22 00:43:32;;;;;;;7.80;1.65;;;;;;;13.41;58.50;101368.00;5091495;28;20055;-46
2022/05/22 00:45:59;;;;;;;4.93;1.30;;;;;;;13.45;58.35;101371.28;5078176;28;20028;-44
2022/05/22 00:48:25;;;;;;;4.38;1.10;;;;;;;13.40;58.34;101368.94;5076855;28;20077;-49
2022/05/22 00:50:55;;;;;;;4.85;0.93;;;;;;;13.39;58.63;101362.75;5089234;28;20035;-44
2022/05/22 00:53:22;;;;;;;5.57;1.23;;;;;;;13.38;58.77;101366.34;5092715;28;20038;-45
2022/05/22 00:55:47;;;;;;;7.88;1.42;;;;;;;13.36;58.72;101373.53;5083821;28;20798;-44
2022/05/22 00:58:16;;;;;;;5.90;1.30;;;;;;;13.25;58.92;101365.34;5081870;28;20031;-45
2022/05/22 01:00:43;;;;;;;5.43;1.60;;;;;;;13.25;58.98;101360.06;5085368;28;20491;-46
2022/05/22 01:03:27;;;;;;;4.63;1.42;;;;;;;13.28;58.94;101362.53;5085127;28;20028;-48
2022/05/22 01:05:54;;;;;;;6.85;1.50;;;;;;;13.34;58.60;101364.84;5086263;28;20563;-48
2022/05/22 01:08:20;;;;;;;6.07;1.50;;;;;;;13.43;58.66;101367.88;5087685;28;20028;-46
2022/05/22 01:10:50;;;;;;;6.30;1.20;;;;;;;13.43;58.54;101367.88;5081783;28;20020;-48
2022/05/22 01:13:20;;;;;;;6.05;1.52;;;;;;;13.40;58.60;101364.47;5082210;28;20495;-46
2022/05/22 01:15:46;;;;;;;5.22;1.25;;;;;;;13.39;58.61;101370.66;5083157;28;20117;-45
2022/05/22 01:18:12;;;;;;;6.07;1.48;;;;;;;13.39;58.48;101368.03;5087298;28;20411;-48
2022/05/22 01:20:44;;;;;;;8.95;1.75;;;;;;;13.40;58.44;101369.75;5082958;28;20115;-44
2022/05/22 01:23:09;;;;;;;6.50;1.30;;;;;;;13.42;58.45;101367.06;5081831;28;20377;-44
2022/05/22 01:25:36;;;;;;;6.32;1.42;;;;;;;13.40;58.52;101366.28;5079946;28;20035;-46
2022/05/22 01:28:02;;;;;;;8.85;1.45;;;;;;;13.40;58.60;101377.69;5083418;28;20016;-47
2022/05/22 01:30:29;;;;;;;5.45;1.30;;;;;;;13.37;58.59;101361.16;5082349;28;20545;-45
2022/05/22 01:32:54;;;;;;;6.82;1.75;;;;;;;13.32;58.92;101361.44;5086942;28;20036;-44
2022/05/22 01:35:25;;;;;;;5.47;1.60;;;;;;;13.31;59.02;101358.88;5079660;28;20024;-44
2022/05/22 01:37:52;;;;;;;6.05;1.20;;;;;;;13.35;58.90;101363.88;5085893;28;20037;-46
2022/05/22 01:40:19;;;;;;;7.10;1.40;;;;;;;13.38;58.86;101361.06;5081322;28;20064;-48
2022/05/22 01:42:45;;;;;;;5.18;1.50;;;;;;;13.36;58.95;101352.38;5082571;28;20031;-49
2022/05/22 01:45:14;;;;;;;5.32;1.50;;;;;;;13.31;59.00;101357.06;5079603;28;20048;-47
2022/05/22 01:47:40;;;;;;;5.43;1.30;;;;;;;13.28;59.12;101351.97;5081344;28;20547;-48
2022/05/22 01:50:08;;;;;;;4.35;1.45;;;;;;;13.29;59.24;101356.31;5086183;28;20546;-47
2022/05/22 01:52:34;;;;;;;3.47;1.13;;;;;;;13.28;59.22;101354.59;5087992;28;20032;-47
2022/05/22 01:55:00;;;;;;;4.95;1.30;;;;;;;13.25;59.47;101360.94;5083486;28;20028;-50
2022/05/22 01:57:26;;;;;;;7.47;1.30;;;;;;;13.25;59.63;101355.66;5075539;28;20412;-45
2022/05/22 01:59:51;;;;;;;5.63;1.50;;;;;;;13.25;59.68;101360.06;5077741;28;20617;-51
2022/05/22 02:02:17;;;;;;;6.50;1.52;;;;;;;13.18;59.75;101350.81;5083957;28;20071;-46
2022/05/22 02:04:42;;;;;;;6.80;1.30;;;;;;;13.11;60.19;101352.97;5084156;28;20028;-51
2022/05/22 02:09:51;;;;;;;8.43;2.10;;;;;;;12.94;60.66;101353.94;5083239;28;20051;-46
2022/05/22 02:12:17;;;;;;;8.65;1.77;;;;;;;12.95;60.70;101347.72;5086255;28;20035;-46
2022/05/22 02:14:43;;;;;;;4.68;2.00;;;;;;;12.97;60.71;101351.13;5083477;28;20028;-46
2022/05/22 02:17:08;;;;;;;10.20;1.58;;;;;;;12.97;60.81;101340.56;5080808;28;20115;-49
2022/05/22 02:19:34;;;;;;;8.70;1.60;;;;;;;13.02;60.67;101349.09;5087736;28;20020;-44
2022/05/22 02:21:59;;;;;;;9.15;1.70;;;;;;;12.99;61.14;101356.34;5086209;28;20107;-45
2022/05/22 02:24:25;;;;;;;4.85;1.50;;;;;;;12.94;61.06;101351.31;5086926;28;20028;-47
2022/05/22 02:26:50;;;;;;;4.75;2.35;;;;;;;12.91;61.40;101346.22;5086040;28;20081;-51
2022/05/22 02:29:16;;;;;;;7.88;1.52;;;;;;;12.90;61.35;101347.16;5086070;28;20051;-46
2022/05/22 02:31:42;;;;;;;8.77;1.65;;;;;;;12.94;61.48;101338.97;5087006;28;20032;-45
2022/05/22 02:34:07;;;;;;;8.23;1.70;;;;;;;13.02;61.25;101346.44;5081980;28;20039;-45
2022/05/22 02:36:33;;;;;;;6.25;1.60;;;;;;;13.08;61.08;101354.00;5089180;28;20564;-45
2022/05/22 02:38:58;;;;;;;7.50;1.60;;;;;;;13.12;60.89;101346.75;5082919;28;20042;-48
2022/05/22 02:41:25;;;;;;;6.93;1.85;;;;;;;13.13;61.08;101347.59;5084600;28;20059;-45
2022/05/22 02:43:51;;;;;;;3.85;1.30;;;;;;;13.17;61.19;101343.84;5087934;28;20016;-49
2022/05/22 02:46:19;;;;;;;6.03;1.52;;;;;;;13.22;60.92;101345.25;5084135;28;20063;-45
2022/05/22 02:48:46;;;;;;;5.18;1.55;;;;;;;13.26;61.02;101348.56;5082621;28;20032;-44
2022/05/22 02:51:17;;;;;;;6.45;1.60;;;;;;;13.23;61.06;101346.13;5091459;28;20070;-45
2022/05/22 02:53:43;;;;;;;7.95;1.90;;;;;;;13.22;60.98;101334.69;5094949;28;20031;-49
2022/05/22 02:56:10;;;;;;;6.65;1.80;;;;;;;13.17;61.35;101335.91;5082551;28;20028;-47
2022/05/22 02:58:36;;;;;;;6.45;1.75;;;;;;;13.16;61.48;101336.84;5086466;28;20652;-45
2022/05/22 03:01:03;;;;;;;7.63;2.17;;;;;;;13.15;61.45;101336.00;5085310;28;20039;-51
2022/05/22 03:03:29;;;;;;;5.70;1.77;;;;;;;13.10;61.49;101333.63;5087344;28;20483;-49
2022/05/22 03:08:38;;;;;;;6.38;1.52;;;;;;;13.14;61.54;101336.09;5088269;28;20039;-50
2022/05/22 03:11:04;;;;;;;6.22;1.58;;;;;;;13.16;61.40;101342.13;5092420;28;20016;-51
2022/05/22 03:13:30;;;;;;;7.25;1.60;;;;;;;13.17;61.38;101335.91;5093626;28;20027;-44
2022/05/22 03:15:55;;;;;;;6.93;1.60;;;;;;;13.18;61.37;101337.63;5088873;28;20047;-45
2022/05/22 03:18:20;;;;;;;6.07;1.63;;;;;;;13.17;61.35;101346.47;5089242;28;20033;-49
2022/05/22 03:20:46;;;;;;;11.75;3.10;;;;;;;13.16;61.36;101347.41;5087689;28;20051;-46
2022/05/22 03:23:13;;;;;;;7.35;1.58;;;;;;;13.16;61.44;101350.91;5085015;28;20028;-45
2022/05/22 03:25:39;;;;;;;7.70;1.98;;;;;;;13.14;61.37;101351.94;5084516;28;20612;-48
2022/05/22 03:28:05;;;;;;;5.80;1.60;;;;;;;13.11;61.68;101343.25;5089588;28;20653;-45
2022/05/22 03:30:31;;;;;;;7.57;1.70;;;;;;;13.13;61.57;101355.50;5089293;28;20036;-46
2022/05/22 03:32:56;;;;;;;10.80;2.78;;;;;;;13.15;61.66;101359.78;5082169;28;20035;-45
2022/05/22 03:35:22;;;;;;;7.57;1.67;;;;;;;13.17;61.55;101364.97;5087490;28;20078;-44
2022/05/22 03:37:47;;;;;;;9.50;1.73;;;;;;;13.16;61.63;101368.56;5086998;28;20016;-45
2022/05/22 03:40:13;;;;;;;7.55;1.55;;;;;;;13.14;61.60;101373.94;5088179;28;20518;-47
2022/05/22 03:42:39;;;;;;;6.70;1.60;;;;;;;13.17;61.74;101364.97;5082626;28;20036;-51
2022/05/22 03:45:05;;;;;;;5.28;1.88;;;;;;;13.19;61.42;101374.50;5079877;28;21009;-46
2022/05/22 03:47:31;;;;;;;8.23;1.50;;;;;;;13.19;61.36;101369.22;5082580;28;20032;-45
2022/05/22 03:49:56;;;;;;;8.65;1.63;;;;;;;13.19;61.38;101365.75;5083447;28;20050;-44
2022/05/22 03:52:22;;;;;;;9.63;1.90;;;;;;;13.19;61.52;101369.22;5088089;28;20032;-45
2022/05/22 03:54:47;;;;;;;6.93;1.50;;;;;;;13.18;61.44;101374.59;5084580;28;20124;-44
2022/05/22 03:57:13;;;;;;;4.43;1.70;;;;;;;13.17;61.66;101375.53;5082047;28;20507;-47
2022/05/22 03:59:39;;;;;;;3.03;1.40;;;;;;;13.17;61.65;101372.91;5094805;28;20391;-50
2022/05/22 04:02:05;;;;;;;4.78;1.67;;;;;;;13.18;61.65;101374.59;5087730;28;20066;-48
2022/05/22 04:04:31;;;;;;;8.57;2.05;;;;;;;13.18;61.85;101370.16;5090339;28;20051;-46
2022/05/22 04:06:56;;;;;;;6.70;1.55;;;;;;;13.20;61.76;101367.44;5087431;28;20039;-45
2022/05/22 04:09:22;;;;;;;6.07;2.10;;;;;;;13.22;61.85;101362.91;5086101;28;20036;-49
2022/05/22 04:11:47;;;;;;;7.07;1.60;;;;;;;13.22;61.82;101365.56;5081621;28;20024;-51
2022/05/22 04:14:13;;;;;;;9.30;1.88;;;;;;;13.19;62.01;101358.66;5083937;28;20046;-51
2022/05/22 04:16:38;;;;;;;8.30;3.13;;;;;;;13.14;62.20;101368.66;5081880;28;20027;-50
2022/05/22 04:19:04;;;;;;;8.23;2.30;;;;;;;13.11;62.23;101368.84;5083837;28;20396;-49
2022/05/22 04:21:30;;;;;;;7.03;1.63;;;;;;;13.11;62.25;101376.75;5086649;28;20073;-46
2022/05/22 04:26:39;;;;;;;7.50;1.95;;;;;;;13.16;62.40;101366.75;5083197;28;20035;-47
2022/05/22 04:29:05;;;;;;;7.28;1.73;;;;;;;13.18;62.49;101366.69;5081127;28;20032;-46
2022/05/22 04:31:30;;;;;;;7.40;1.83;;;;;;;13.22;62.36;101376.13;5085333;28;20035;-47
2022/05/22 04:33:56;;;;;;;8.43;1.63;;;;;;;13.24;62.33;101368.94;5083441;28;20028;-48
2022/05/22 04:36:21;;;;;;;6.18;1.80;;;;;;;13.26;62.42;101367.06;5079331;28;20028;-46
2022/05/22 04:38:47;;;;;;;6.32;2.13;;;;;;;13.29;62.38;101369.53;5084438;28;20031;-44
2022/05/22 04:41:12;;;;;;;9.20;1.85;;;;;;;13.29;62.51;101369.53;5083590;28;20028;-46
2022/05/22 04:43:38;;;;;;;10.55;2.35;;;;;;;13.28;62.60;101370.47;5083322;28;20076;-45
2022/05/22 04:46:07;;;;;;;8.00;2.10;;;;;;;13.30;62.62;101376.53;5083645;28;20107;-50
2022/05/22 04:48:32;;;;;;;7.88;1.83;;;;;;;13.28;62.67;101381.03;5085058;28;20031;-48
2022/05/22 04:50:58;;;;;;;9.40;1.90;;;;;;;13.32;62.91;101389.63;5083654;28;20020;-47
2022/05/22 04:53:25;;;;;;;8.40;2.35;;;;;;;13.37;62.86;101380.50;5086657;28;20395;-44
2022/05/22 04:55:51;;;;;;;4.13;1.58;;;;;;;13.41;62.79;101384.69;5087070;28;20537;-51
2022/05/22 04:58:19;;;;;;;8.55;2.35;;;;;;;13.48;62.83;101381.69;5085696;28;20081;-45
2022/05/22 05:00:45;;;;;;;8.88;2.03;;;;;;;13.52;62.62;101391.16;5085065;28;20205;-47
2022/05/22 05:03:10;;;;;;;5.57;1.90;;;;;;;13.56;62.80;101390.00;5087032;28;20486;-45
2022/05/22 05:05:36;;;;;;;4.95;1.70;;;;;;;13.60;62.65;101388.88;5079814;28;20472;-48
2022/05/22 05:08:02;;;;;;;7.53;1.90;;;;;;;13.62;62.73;101389.63;5084298;28;20038;-45
2022/05/22 05:10:27;;;;;;;6.68;1.80;;;;;;;13.64;62.88;101389.53;5086981;28;20035;-45
2022/05/22 05:12:53;;;;;;;7.43;2.10;;;;;;;13.66;62.80;101391.16;5092133;28;20040;-45
2022/05/22 05:15:21;;;;;;;5.28;1.75;;;;;;;13.70;62.96;101397.09;5088895;28;20444;-44
2022/05/22 05:17:48;;;;;;;4.40;1.60;;;;;;;13.75;62.63;101383.59;5087764;28;20062;-45
2022/05/22 05:20:16;;;;;;;8.90;2.30;;;;;;;13.81;62.69;101383.25;5093738;28;20024;-44
2022/05/22 05:22:43;;;;;;;5.60;1.65;;;;;;;13.82;62.82;101392.88;5086644;28;20479;-46
2022/05/22 05:25:10;;;;;;;8.95;2.00;;;;;;;13.83;62.73;101394.59;5088862;28;20441;-44
2022/05/22 05:27:35;;;;;;;6.00;1.80;;;;;;;13.87;62.88;101393.44;5086267;28;20112;-50
2022/05/22 05:30:00;;;;;;;5.30;1.90;;;;;;;13.84;62.86;101391.00;5086624;28;20130;-47
2022/05/22 05:32:26;;;;;;;8.43;2.53;;;;;;;13.83;62.96;101405.16;5089131;28;20040;-46
2022/05/22 05:35:06;;;;;;;7.32;1.88;;;;;;;13.84;63.03;101398.94;5086030;28;20028;-44
2022/05/22 05:37:33;;;;;;;12.02;2.17;;;;;;;13.77;63.20;101402.88;5088583;28;20023;-46
2022/05/22 05:39:58;;;;;;;5.82;1.80;;;;;;;13.73;63.63;101407.50;5087329;28;20495;-49
2022/05/22 05:42:24;;;;;;;7.32;2.00;;;;;;;13.80;63.24;101413.28;5095159;28;20035;-47
2022/05/22 05:44:51;;;;;;;7.65;2.00;;;;;;;13.87;63.10;101396.06;5089385;28;20527;-44
2022/05/22 05:47:17;;;;;;;9.35;2.15;;;;;;;13.95;63.14;101399.13;5086258;28;20040;-45
2022/05/22 05:49:42;;;;;;;9.35;2.83;;;;;;;14.03;62.96;101401.28;5091157;28;20385;-47
2022/05/22 05:52:07;;;;;;;7.85;2.20;;;;;;;14.02;63.02;101407.53;5086485;28;20447;-46
2022/05/22 05:54:33;;;;;;;9.38;2.03;;;;;;;13.97;63.29;101394.59;5090474;28;20118;-44
2022/05/22 05:56:58;;;;;;;9.68;2.17;;;;;;;13.98;63.42;101396.28;5089736;28;20043;-51
2022/05/22 05:59:25;;;;;;;5.88;2.22;;;;;;;13.94;63.72;101394.75;5088241;28;20027;-45
2022/05/22 06:01:51;;;;;;;9.60;2.05;;;;;;;13.92;63.80;101383.41;5084854;28;20023;-46
2022/05/22 06:04:16;;;;;;;8.35;2.08;;;;;;;14.00;63.83;101388.25;5095825;28;20031;-45
2022/05/22 06:06:42;;;;;;;6.75;2.00;;;;;;;14.07;63.49;101394.00;5090014;28;20398;-47
2022/05/22 06:09:08;;;;;;;7.25;1.90;;;;;;;14.11;63.26;101390.22;5082827;28;20036;-46
2022/05/22 06:11:33;;;;;;;11.38;2.22;;;;;;;14.08;63.41;101401.00;5084097;28;20036;-49
2022/05/22 06:13:59;;;;;;;7.63;2.28;;;;;;;13.97;63.61;101404.28;5084188;28;20110;-44
2022/05/22 06:16:26;;;;;;;7.72;2.42;;;;;;;13.93;64.04;101398.34;5083627;28;20031;-44
2022/05/22 06:18:52;;;;;;;11.02;2.88;;;;;;;13.88;64.27;101405.72;5091008;28;20026;-49
2022/05/22 06:21:21;;;;;;;7.07;2.60;;;;;;;13.87;64.37;101404.00;5092676;28;20121;-46
2022/05/22 06:23:47;;;;;;;10.13;2.45;;;;;;;13.92;64.29;101401.94;5088441;28;20024;-45
2022/05/22 06:26:17;;;;;;;9.88;2.55;;;;;;;13.99;64.47;101402.41;5088451;28;20434;-46
2022/05/22 06:28:44;;;;;;;10.48;2.47;;;;;;;14.11;64.22;101411.41;5081957;28;20024;-46
2022/05/22 06:31:11;;;;;;;10.68;2.60;;;;;;;14.14;64.28;101405.91;5086098;28;20048;-49
2022/05/22 06:33:37;;;;;;;6.00;1.92;;;;;;;14.24;64.07;101412.31;5087459;28;20062;-46
2022/05/22 06:36:08;;;;;;;8.15;2.00;;;;;;;14.35;63.71;101416.09;5088659;28;20119;-48
2022/05/22 06:41:19;;;;;;;16.52;2.28;;;;;;;14.47;63.34;101407.38;5085426;28;20039;-50
2022/05/22 06:43:46;;;;;;;8.07;2.28;;;;;;;14.52;63.36;101399.16;5085876;28;20020;-47
2022/05/22 06:46:11;;;;;;;8.50;2.38;;;;;;;14.56;63.47;101404.16;5080111;28;20102;-45
2022/05/22 06:48:37;;;;;;;8.52;2.08;;;;;;;14.57;63.27;101416.44;5093134;28;20445;-50
2022/05/22 06:51:02;;;;;;;11.82;2.17;;;;;;;14.55;63.23;101409.53;5092125;28;20028;-46
2022/05/22 06:53:29;;;;;;;7.80;2.15;;;;;;;14.57;63.28;101403.19;5090372;28;20129;-46
2022/05/22 06:55:55;;;;;;;6.60;2.10;;;;;;;14.61;63.19;101414.44;5095865;28;20063;-45
2022/05/22 06:58:20;;;;;;;11.95;2.38;;;;;;;14.66;63.31;101403.53;5082608;28;20511;-47
2022/05/22 07:00:53;;;;;;;11.20;2.13;;;;;;;14.73;62.80;101397.78;5083522;28;20101;-45
2022/05/22 07:03:19;;;;;;;8.90;2.22;;;;;;;14.74;62.99;101401.28;5087702;28;20107;-45
2022/05/22 07:05:44;;;;;;;7.28;2.13;;;;;;;14.81;62.87;101405.22;5088178;28;20036;-45
2022/05/22 07:08:09;;;;;;;6.65;2.10;;;;;;;14.81;62.76;101405.22;5083774;28;20097;-46
2022/05/22 07:13:20;;;;;;;8.18;2.65;;;;;;;14.86;62.73;101416.38;5085685;28;20545;-50
2022/05/22 07:15:46;;;;;;;8.85;2.28;;;;;;;14.91;62.26;101416.06;5088063;28;20027;-45
2022/05/22 07:18:11;;;;;;;8.50;2.95;;;;;;;14.96;61.98;101413.13;5084914;28;20040;-47
2022/05/22 07:20:36;;;;;;;10.93;2.47;;;;;;;14.99;62.02;101407.63;5087400;28;20036;-45
2022/05/22 07:23:02;;;;;;;8.32;2.80;;;;;;;15.02;61.99;101407.44;5084684;28;20065;-47
2022/05/22 07:25:28;;;;;;;8.77;2.17;;;;;;;15.08;61.71;101401.72;5085724;28;20029;-51
2022/05/22 07:27:53;;;;;;;6.82;2.17;;;;;;;15.17;61.84;101417.03;5084998;28;20031;-49
2022/05/22 07:30:19;;;;;;;7.85;3.20;;;;;;;15.27;61.63;101416.38;5086570;28;20115;-46
2022/05/22 07:32:44;;;;;;;10.05;2.00;;;;;;;15.39;60.88;101415.56;5085340;28;20028;-52
2022/05/22 07:35:10;;;;;;;8.23;1.85;;;;;;;15.45;60.48;101409.84;5082899;28;20519;-45
2022/05/22 07:37:35;;;;;;;9.80;2.22;;;;;;;15.48;60.33;101419.41;5084180;28;20024;-48
2022/05/22 07:40:01;;;;;;;6.00;1.95;;;;;;;15.42;60.37;101407.41;5088682;28;20028;-48
2022/05/22 07:42:26;;;;;;;5.95;2.08;;;;;;;15.43;60.42;101409.09;5084735;28;20028;-50
2022/05/22 07:44:52;;;;;;;4.50;1.75;;;;;;;15.47;60.51;101409.75;5083182;28;20036;-50
2022/05/22 07:47:17;;;;;;;5.32;2.28;;;;;;;15.47;60.09;101413.25;5084349;28;20034;-48
2022/05/22 07:52:27;;;;;;;6.90;2.10;;;;;;;15.52;59.93;101404.97;5086024;28;20062;-46
2022/05/22 07:54:52;;;;;;;9.63;2.03;;;;;;;15.58;59.67;101409.00;5083779;28;20032;-45
2022/05/22 07:57:18;;;;;;;9.10;2.10;;;;;;;15.58;59.55;101406.34;5084197;28;20108;-45
2022/05/22 07:59:44;;;;;;;6.78;2.00;;;;;;;15.57;59.57;101413.47;5087937;28;20032;-49
2022/05/22 08:02:13;;;;;;;3.47;1.80;;;;;;;15.58;59.50;101409.84;5087538;28;20027;-50
2022/05/22 08:04:43;;;;;;;13.88;2.10;;;;;;;15.64;59.52;101403.28;5083607;28;20054;-46
2022/05/22 08:07:08;;;;;;;9.27;1.83;;;;;;;15.65;58.90;101405.84;5083494;28;20035;-45
2022/05/22 08:09:34;;;;;;;7.60;2.20;;;;;;;15.59;58.98;101408.91;5086652;28;20274;-48
2022/05/22 08:11:59;;;;;;;6.63;3.05;;;;;;;15.63;58.94;101406.91;5079488;28;20028;-49
2022/05/22 08:14:25;;;;;;;6.82;2.50;;;;;;;15.72;58.95;101408.91;5083807;28;20096;-47
2022/05/22 08:16:52;;;;;;;6.50;1.70;;;;;;;15.78;58.64;101411.16;5083875;28;20094;-49
2022/05/22 08:19:18;;;;;;;8.52;2.10;;;;;;;15.78;58.17;101427.06;5071740;28;20582;-47
2022/05/22 08:21:43;;;;;;;8.15;2.20;;;;;;;15.74;58.17;101416.75;5080004;28;20111;-45
2022/05/22 08:24:09;;;;;;;7.03;2.13;;;;;;;15.73;58.02;101407.97;5080202;28;20027;-45
2022/05/22 08:26:34;;;;;;;7.78;2.05;;;;;;;15.75;57.96;101406.06;5086820;28;20051;-47
2022/05/22 08:29:00;;;;;;;6.25;1.85;;;;;;;15.74;57.98;101412.31;5086948;28;20479;-45
2022/05/22 08:31:25;;;;;;;8.60;1.90;;;;;;;15.78;58.15;101410.28;5089618;28;20088;-47
2022/05/22 08:33:51;;;;;;;10.27;3.88;;;;;;;15.84;58.11;101413.38;5088062;28;20407;-47
2022/05/22 08:36:17;;;;;;;5.15;2.22;;;;;;;15.91;57.85;101411.16;5083690;28;20127;-50
2022/05/22 08:38:42;;;;;;;4.75;2.00;;;;;;;15.92;57.59;101394.28;5069201;28;20041;-52
2022/05/22 08:41:12;;;;;;;22.73;7.82;;;;;;;15.91;57.44;101389.09;5083287;28;20047;-46
2022/05/22 08:43:46;;;;;;;5.45;1.77;;;;;;;15.86;57.42;101394.72;5087387;28;20035;-45
2022/05/22 08:46:25;;;;;;;16.10;7.35;;;;;;;15.89;57.33;101393.66;5085316;28;20507;-50
2022/05/22 08:48:57;;;;;;;6.50;1.63;;;;;;;15.92;57.13;101393.44;5084347;28;20365;-46
2022/05/22 08:51:45;;;;;;;11.98;2.20;;;;;;;15.93;57.12;101395.16;5092029;28;20063;-47
2022/05/22 08:54:31;;;;;;;6.38;2.20;;;;;;;15.96;56.82;101392.25;5083202;28;20430;-45
2022/05/22 08:59:45;;;;;;;7.15;1.80;;;;;;;15.85;57.03;101398.34;5086231;28;20059;-47
2022/05/22 09:02:26;;;;;;;7.35;2.03;;;;;;;15.84;57.37;101400.09;5078246;28;20024;-46
2022/05/22 09:05:04;;;;;;;8.40;2.35;;;;;;;15.93;57.14;101397.81;5075524;28;20031;-45
2022/05/22 09:07:40;;;;;;;7.53;2.00;;;;;;;16.02;57.04;101404.28;5081751;28;20028;-47
2022/05/22 09:10:10;;;;;;;10.88;1.98;;;;;;;16.04;56.69;101395.22;5077751;28;20050;-45
2022/05/22 09:12:50;;;;;;;;;;;;;;;16.01;56.96;101406.06;5080958;28;20496;-45
2022/05/22 09:15:27;;;;;;;8.52;2.65;;;;;;;16.02;56.87;101399.81;5074903;28;20358;-45
2022/05/22 09:18:00;;;;;;;9.18;1.88;;;;;;;15.96;57.24;101408.19;5081485;28;20024;-48
2022/05/22 09:20:41;;;;;;;8.38;2.00;;;;;;;15.94;57.28;101399.50;5078330;28;20525;-46
2022/05/22 09:23:16;;;;;;;5.75;2.10;;;;;;;15.93;56.97;101403.94;5082732;28;20038;-49
2022/05/22 09:26:08;;;;;;;6.88;2.05;;;;;;;15.98;57.30;101401.81;5080568;28;20567;-47
2022/05/22 09:28:46;;;;;;;6.35;1.90;;;;;;;16.00;57.73;101404.38;5085933;28;20177;-45
2022/05/22 09:31:48;;;;;;;7.22;1.90;;;;;;;16.04;57.47;101405.00;5078168;28;20028;-50
2022/05/22 09:34:19;;;;;;;5.32;1.88;;;;;;;16.11;57.43;101403.63;5081905;28;20036;-47
2022/05/22 09:37:03;;;;;;;7.25;2.10;;;;;;;16.14;57.73;101406.88;5074301;28;20396;-49
2022/05/22 09:39:53;;;;;;;4.65;1.75;;;;;;;16.19;57.45;101411.03;5093997;28;20034;-45
2022/05/22 09:42:43;;;;;;;6.30;2.15;;;;;;;16.25;57.39;101408.78;5084264;28;20024;-50
2022/05/22 09:45:27;;;;;;;10.68;4.72;;;;;;;16.37;57.40;101407.06;5074312;28;20880;-50
2022/05/22 09:47:55;;;;;;;9.40;2.33;;;;;;;16.41;57.41;101407.69;5067708;28;20114;-43
2022/05/22 09:50:59;;;;;;;8.15;2.25;;;;;;;16.50;57.16;101401.69;5074042;28;20506;-44
2022/05/22 09:53:27;;;;;;;8.40;2.20;;;;;;;16.58;56.92;101401.16;5039053;28;20053;-44
2022/05/22 09:56:01;;;;;;;7.07;2.38;;;;;;;16.60;56.47;101399.22;5080016;28;20035;-43
2022/05/22 09:58:29;;;;;;;7.20;2.05;;;;;;;16.59;56.37;101394.88;5087172;28;20471;-43
2022/05/22 10:01:20;;;;;;;9.02;2.40;;;;;;;16.64;56.42;101391.91;5086453;28;20775;-44
2022/05/22 10:04:05;;;;;;;9.15;2.20;;;;;;;16.75;55.96;101390.13;5080378;28;20550;-46
2022/05/22 10:06:30;;;;;;;8.18;2.05;;;;;;;16.83;55.92;101386.06;5075018;28;20149;-44
2022/05/22 10:09:07;;;;;;;8.00;1.75;;;;;;;16.90;55.41;101393.47;5085331;28;20031;-45
2022/05/22 10:11:38;;;;;;;6.00;1.77;;;;;;;16.97;55.15;101396.56;5093062;28;20026;-45
2022/05/22 10:14:23;;;;;;;5.60;2.20;;;;;;;17.04;54.81;101399.59;5092568;28;20036;-48
2022/05/22 10:17:14;;;;;;;6.90;1.63;;;;;;;17.07;54.34;101394.06;5090171;28;20134;-46
2022/05/22 10:20:19;;;;;;;6.88;1.85;;;;;;;17.10;54.16;101398.28;5086743;28;20051;-47
2022/05/22 10:23:16;;;;;;;6.18;2.08;;;;;;;17.08;54.14;101405.53;5080682;28;20028;-46
2022/05/22 10:26:06;;;;;;;8.07;2.10;;;;;;;17.04;54.15;101402.25;5047164;27;20536;-48
2022/05/22 10:28:37;;;;;;;4.07;1.63;;;;;;;17.01;54.36;101406.00;5088046;28;20028;-47
2022/05/22 10:31:33;;;;;;;6.30;1.92;;;;;;;17.01;54.34;101411.31;5084669;28;20106;-48
2022/05/22 10:34:08;;;;;;;5.50;2.03;;;;;;;16.98;54.67;101410.69;5080747;28;20032;-43
2022/05/22 10:36:39;;;;;;;4.35;1.63;;;;;;;16.91;54.67;101426.22;5081076;28;20032;-48
2022/05/22 10:39:08;;;;;;;6.15;2.03;;;;;;;16.88;54.69;101414.00;5080698;28;20024;-47
2022/05/22 10:44:34;;;;;;;6.38;1.67;;;;;;;16.84;54.47;101417.84;5084534;28;20518;-44
2022/05/22 10:47:02;;;;;;;5.47;2.08;;;;;;;16.88;54.78;101410.47;5085056;28;20028;-45
2022/05/22 10:49:37;;;;;;;4.78;1.42;;;;;;;17.01;54.53;101419.31;5087821;28;20051;-48
2022/05/22 10:52:04;;;;;;;7.20;1.67;;;;;;;17.12;54.29;101418.47;5078117;28;20479;-45
2022/05/22 10:54:33;;;;;;;8.55;1.80;;;;;;;17.22;53.98;101418.63;5079231;28;20442;-46
2022/05/22 10:57:18;;;;;;;6.95;1.50;;;;;;;17.32;53.15;101419.63;5081758;28;20483;-47
2022/05/22 10:59:45;;;;;;;6.13;1.55;;;;;;;17.33;52.73;101416.00;5083529;28;20119;-44
2022/05/22 11:02:31;;;;;;;4.55;1.60;;;;;;;17.33;52.69;101421.31;5084002;28;20059;-47
2022/05/22 11:04:59;;;;;;;5.80;1.80;;;;;;;17.37;52.63;101411.31;5081323;28;20020;-45
2022/05/22 11:07:32;;;;;;;5.15;1.77;;;;;;;17.38;52.51;101418.34;5078726;28;20724;-48
2022/05/22 11:10:17;;;;;;;5.35;1.60;;;;;;;17.37;51.92;101420.13;5084671;28;20032;-43
2022/05/22 11:12:43;;;;;;;4.07;1.50;;;;;;;17.31;52.12;101414.44;5085094;28;20020;-44
2022/05/22 11:15:15;;;;;;;4.22;1.80;;;;;;;17.29;52.36;101413.69;5084063;28;20086;-47
2022/05/22 11:17:41;;;;;;;8.25;1.67;;;;;;;17.24;52.76;101421.19;5088302;28;20031;-42
2022/05/22 11:20:21;;;;;;;9.38;2.00;;;;;;;17.19;53.18;101414.41;5085297;28;20071;-42
2022/05/22 11:23:07;;;;;;;4.80;1.50;;;;;;;17.11;53.19;101426.59;5077966;28;20103;-43
2022/05/22 11:25:51;;;;;;;7.88;1.70;;;;;;;17.10;53.39;101416.91;5083445;28;20107;-50
2022/05/22 11:28:46;;;;;;;7.05;1.42;;;;;;;17.12;53.17;101401.69;5082916;28;20600;-44
2022/05/22 11:31:32;;;;;;;3.42;1.58;;;;;;;17.20;53.18;101409.91;5075987;28;20044;-48
2022/05/22 11:34:35;;;;;;;4.25;1.50;;;;;;;17.29;52.75;101409.25;5084304;28;20115;-47
2022/05/22 11:37:28;;;;;;;5.60;1.70;;;;;;;17.43;52.73;101399.38;5074765;28;20064;-46
2022/05/22 11:40:21;;;;;;;5.97;1.73;;;;;;;17.47;52.32;101393.69;5084223;28;20090;-47
2022/05/22 11:42:53;;;;;;;4.38;1.35;;;;;;;17.47;52.43;101400.84;5039823;28;1215991;-50
2022/05/22 11:45:36;;;;;;;5.38;1.52;;;;;;;17.55;52.03;101395.75;5087779;28;20091;-48
2022/05/22 11:48:36;;;;;;;4.90;1.40;;;;;;;17.63;51.84;101397.81;5080337;28;20045;-45
2022/05/22 11:51:26;;;;;;;5.63;1.70;;;;;;;17.72;51.67;101391.78;5066723;28;20040;-48
2022/05/22 11:53:52;;;;;;;;;;;;;;;17.75;51.82;101385.38;5080225;28;20063;-44
2022/05/22 11:56:32;;;;;;;6.85;1.60;;;;;;;17.82;51.99;101383.91;5088996;28;19943;-51
2022/05/22 11:59:34;;;;;;;5.30;1.38;;;;;;;17.93;51.53;101380.41;5080246;28;20085;-44